Time;durP1;ratioP1;P1;durP2;ratioP2;P2;SDS_P1;SDS_P2;PMS_P1;PMS_P2;Temp;Humidity;BMP_temperature;BMP_pressure;BME280_temperature;BME280_humidity;BME280_pressure;Samples;Min_cycle;Max_cycle;Signal;HPM_P1;HPM_P2
2022/02/23 00:01:40;;;;;;;;;;;;;;;;;;4927048;29;20002;-76
2022/02/23 00:04:06;;;;;;;;;;;;;;;;;;4900595;29;20510;-78
2022/02/23 00:06:32;;;;;;;;;;;;;;;;;;4906645;29;19969;-78
2022/02/23 00:08:58;;;;;;;;;;;;;;;;;;4901194;29;19953;-78
2022/02/23 00:11:23;;;;;;;;;;;;;;;;;;4886669;29;19959;-76
2022/02/23 00:13:49;;;;;;;;;;;;;;;;;;4886842;29;19961;-77
2022/02/23 00:16:15;;;;;;;;;;;;;;;;;;4886168;29;19963;-76
2022/02/23 00:18:41;;;;;;;;;;;;;;;;;;4907892;29;19970;-77
2022/02/23 00:21:07;;;;;;;;;;;;;;;;;;4900419;29;20294;-76
2022/02/23 00:23:33;;;;;;;;;;;;;;;;;;4899504;29;19975;-75
2022/02/23 00:25:59;;;;;;;;;;;;;;;;;;4904569;29;20023;-77
2022/02/23 00:28:25;;;;;;;;;;;;;;;;;;4900743;29;20011;-75
2022/02/23 00:30:51;;;;;;;;;;;;;;;;;;4902804;29;19971;-75
2022/02/23 00:33:17;;;;;;;;;;;;;;;;;;4901623;29;20445;-75
2022/02/23 00:35:43;;;;;;;;;;;;;;;;;;4909068;29;19975;-76
2022/02/23 00:38:09;;;;;;;;;;;;;;;;;;4890459;29;20452;-75
2022/02/23 00:40:35;;;;;;;;;;;;;;;;;;4887508;29;21801;-78
2022/02/23 00:43:01;;;;;;;;;;;;;;;;;;4899489;29;19963;-79
2022/02/23 00:45:27;;;;;;;;;;;;;;;;;;4902576;29;19958;-77
2022/02/23 00:47:53;;;;;;;;;;;;;;;;;;4899497;29;20028;-86
2022/02/23 00:50:19;;;;;;;;;;;;;;;;;;4898220;29;20400;-78
2022/02/23 00:52:45;;;;;;;;;;;;;;;;;;4878916;29;19960;-79
2022/02/23 00:55:11;;;;;;;;;;;;;;;;;;4896829;29;20438;-83
2022/02/23 00:57:37;;;;;;;;;;;;;;;;;;4877656;29;20313;-78
2022/02/23 01:00:04;;;;;;;;;;;;;;;;;;4897850;29;19944;-79
2022/02/23 01:02:30;;;;;;;;;;;;;;;;;;4885685;29;19947;-77
2022/02/23 01:04:56;;;;;;;;;;;;;;;;;;4885005;29;20033;-77
2022/02/23 01:07:22;;;;;;;;;;;;;;;;;;4898675;29;19944;-78
2022/02/23 01:09:48;;;;;;;;;;;;;;;;;;4897479;29;19945;-77
2022/02/23 01:12:14;;;;;;;;;;;;;;;;;;4881237;29;20000;-77
2022/02/23 01:14:40;;;;;;;;;;;;;;;;;;4885842;29;19995;-77
2022/02/23 01:17:06;;;;;;;;;;;;;;;;;;4883372;29;20003;-78
2022/02/23 01:19:32;;;;;;;;;;;;;;;;;;4899025;29;20552;-78
2022/02/23 01:21:58;;;;;;;;;;;;;;;;;;4883948;29;19946;-77
2022/02/23 01:24:24;;;;;;;;;;;;;;;;;;4898164;29;20108;-77
2022/02/23 01:26:50;;;;;;;;;;;;;;;;;;4885131;29;19939;-77
2022/02/23 01:29:16;;;;;;;;;;;;;;;;;;4877621;29;20045;-77
2022/02/23 01:31:42;;;;;;;;;;;;;;;;;;4892084;29;19971;-77
2022/02/23 01:34:08;;;;;;;;;;;;;;;;;;4881003;29;20371;-79
2022/02/23 01:36:34;;;;;;;;;;;;;;;;;;4895823;29;19948;-78
2022/02/23 01:39:00;;;;;;;;;;;;;;;;;;4882077;29;19953;-77
2022/02/23 01:41:26;;;;;;;;;;;;;;;;;;4897669;29;20400;-78
2022/02/23 01:43:52;;;;;;;;;;;;;;;;;;4882649;29;19995;-77
2022/02/23 01:46:18;;;;;;;;;;;;;;;;;;4910148;29;19968;-77
2022/02/23 01:48:44;;;;;;;;;;;;;;;;;;4896969;29;19962;-77
2022/02/23 01:51:10;;;;;;;;;;;;;;;;;;4917244;29;19944;-77
2022/02/23 01:53:36;;;;;;;;;;;;;;;;;;4912718;29;20458;-77
2022/02/23 01:56:02;;;;;;;;;;;;;;;;;;4892615;29;19986;-77
2022/02/23 01:58:27;;;;;;;;;;;;;;;;;;4911240;29;19973;-77
2022/02/23 02:00:53;;;;;;;;;;;;;;;;;;4912174;29;19952;-78
2022/02/23 02:03:19;;;;;;;;;;;;;;;;;;4913316;29;19950;-77
2022/02/23 02:05:45;;;;;;;;;;;;;;;;;;4900402;29;20062;-79
2022/02/23 02:08:11;;;;;;;;;;;;;;;;;;4900237;29;19943;-80
2022/02/23 02:10:37;;;;;;;;;;;;;;;;;;4900441;29;19959;-80
2022/02/23 02:13:03;;;;;;;;;;;;;;;;;;4899836;29;20081;-79
2022/02/23 02:15:29;;;;;;;;;;;;;;;;;;4884554;29;19960;-79
2022/02/23 02:17:55;;;;;;;;;;;;;;;;;;4900612;29;19956;-79
2022/02/23 02:20:21;;;;;;;;;;;;;;;;;;4884214;29;19946;-79
2022/02/23 02:22:47;;;;;;;;;;;;;;;;;;4900570;29;20018;-80
2022/02/23 02:25:13;;;;;;;;;;;;;;;;;;4900013;29;19946;-79
2022/02/23 02:27:39;;;;;;;;;;;;;;;;;;4900171;29;19988;-80
2022/02/23 02:30:05;;;;;;;;;;;;;;;;;;4899617;29;19948;-80
2022/02/23 02:32:31;;;;;;;;;;;;;;;;;;4900233;29;20032;-80
2022/02/23 02:34:57;;;;;;;;;;;;;;;;;;4884426;29;19979;-78
2022/02/23 02:37:23;;;;;;;;;;;;;;;;;;4899899;29;19990;-79
2022/02/23 02:39:49;;;;;;;;;;;;;;;;;;4884312;29;20001;-79
2022/02/23 02:42:15;;;;;;;;;;;;;;;;;;4900276;29;19954;-79
2022/02/23 02:44:41;;;;;;;;;;;;;;;;;;4900872;29;19950;-80
2022/02/23 02:47:07;;;;;;;;;;;;;;;;;;4884213;29;19974;-79
2022/02/23 02:49:32;;;;;;;;;;;;;;;;;;4899672;29;19946;-79
2022/02/23 02:51:58;;;;;;;;;;;;;;;;;;4884470;29;20055;-79
2022/02/23 02:54:24;;;;;;;;;;;;;;;;;;4899882;29;19969;-79
2022/02/23 02:56:50;;;;;;;;;;;;;;;;;;4884756;29;20455;-78
2022/02/23 02:59:17;;;;;;;;;;;;;;;;;;4899321;29;19953;-79
2022/02/23 03:01:43;;;;;;;;;;;;;;;;;;4884349;29;19943;-79
2022/02/23 03:04:09;;;;;;;;;;;;;;;;;;4900389;29;19958;-79
2022/02/23 03:06:35;;;;;;;;;;;;;;;;;;4883886;29;19940;-79
2022/02/23 03:09:01;;;;;;;;;;;;;;;;;;4899880;29;19957;-79
2022/02/23 03:11:27;;;;;;;;;;;;;;;;;;4884082;29;19954;-79
2022/02/23 03:13:52;;;;;;;;;;;;;;;;;;4900036;29;20060;-79
2022/02/23 03:16:18;;;;;;;;;;;;;;;;;;4899663;29;19947;-78
2022/02/23 03:18:44;;;;;;;;;;;;;;;;;;4884203;29;19955;-79
2022/02/23 03:21:10;;;;;;;;;;;;;;;;;;4899955;29;20039;-79
2022/02/23 03:23:36;;;;;;;;;;;;;;;;;;4898443;29;20042;-80
2022/02/23 03:26:02;;;;;;;;;;;;;;;;;;4899956;29;19944;-80
2022/02/23 03:28:29;;;;;;;;;;;;;;;;;;4883900;29;19951;-80
2022/02/23 03:30:55;;;;;;;;;;;;;;;;;;4882860;29;20430;-80
2022/02/23 03:33:21;;;;;;;;;;;;;;;;;;4898299;29;19946;-80
2022/02/23 03:35:47;;;;;;;;;;;;;;;;;;4883084;29;19970;-80
2022/02/23 03:38:13;;;;;;;;;;;;;;;;;;4899741;29;19945;-77
2022/02/23 03:40:39;;;;;;;;;;;;;;;;;;4883419;29;20000;-78
2022/02/23 03:43:05;;;;;;;;;;;;;;;;;;4897623;29;20032;-79
2022/02/23 03:45:31;;;;;;;;;;;;;;;;;;4882869;29;19992;-79
2022/02/23 03:47:57;;;;;;;;;;;;;;;;;;4883340;29;19974;-79
2022/02/23 03:50:22;;;;;;;;;;;;;;;;;;4882318;29;20060;-79
2022/02/23 03:52:48;;;;;;;;;;;;;;;;;;4883634;29;20029;-78
2022/02/23 03:55:14;;;;;;;;;;;;;;;;;;4898774;29;19966;-79
2022/02/23 03:57:40;;;;;;;;;;;;;;;;;;4883520;29;20393;-79
2022/02/23 04:00:06;;;;;;;;;;;;;;;;;;4882849;29;19948;-80
2022/02/23 04:02:32;;;;;;;;;;;;;;;;;;4898074;29;19983;-80
2022/02/23 04:04:58;;;;;;;;;;;;;;;;;;4897871;29;19992;-80
2022/02/23 04:07:24;;;;;;;;;;;;;;;;;;4881594;29;19968;-79
2022/02/23 04:09:50;;;;;;;;;;;;;;;;;;4881652;29;20040;-79
2022/02/23 04:12:16;;;;;;;;;;;;;;;;;;4898519;29;19952;-78
2022/02/23 04:14:42;;;;;;;;;;;;;;;;;;4882680;29;19963;-78
2022/02/23 04:17:08;;;;;;;;;;;;;;;;;;4898897;29;19951;-78
2022/02/23 04:19:34;;;;;;;;;;;;;;;;;;4882889;29;20185;-78
2022/02/23 04:22:00;;;;;;;;;;;;;;;;;;4883412;29;20383;-78
2022/02/23 04:24:26;;;;;;;;;;;;;;;;;;4883056;29;20352;-78
2022/02/23 04:26:52;;;;;;;;;;;;;;;;;;4883344;29;20297;-78
2022/02/23 04:29:18;;;;;;;;;;;;;;;;;;4883310;29;20004;-79
2022/02/23 04:31:44;;;;;;;;;;;;;;;;;;4897673;29;19958;-78
2022/02/23 04:34:10;;;;;;;;;;;;;;;;;;4897545;29;20423;-78
2022/02/23 04:36:36;;;;;;;;;;;;;;;;;;4882467;29;20023;-78
2022/02/23 04:39:02;;;;;;;;;;;;;;;;;;4882436;29;19951;-78
2022/02/23 04:41:28;;;;;;;;;;;;;;;;;;4898392;29;19947;-79
2022/02/23 04:43:54;;;;;;;;;;;;;;;;;;4883194;29;19950;-78
2022/02/23 04:46:20;;;;;;;;;;;;;;;;;;4883038;29;20390;-79
2022/02/23 04:48:46;;;;;;;;;;;;;;;;;;4897789;29;20441;-78
2022/02/23 04:51:12;;;;;;;;;;;;;;;;;;4882916;29;19949;-79
2022/02/23 04:53:38;;;;;;;;;;;;;;;;;;4882405;29;19970;-78
2022/02/23 04:56:04;;;;;;;;;;;;;;;;;;4882260;29;19973;-79
2022/02/23 04:58:29;;;;;;;;;;;;;;;;;;4882725;29;20038;-78
2022/02/23 05:00:55;;;;;;;;;;;;;;;;;;4898261;29;19957;-79
2022/02/23 05:03:21;;;;;;;;;;;;;;;;;;4882982;29;19949;-79
2022/02/23 05:05:49;;;;;;;;;;;;;;;;;;4897853;29;20424;-80
2022/02/23 05:08:15;;;;;;;;;;;;;;;;;;4882325;29;19998;-80
2022/02/23 05:10:41;;;;;;;;;;;;;;;;;;4897210;29;20089;-77
2022/02/23 05:13:07;;;;;;;;;;;;;;;;;;4882674;29;20377;-77
2022/02/23 05:15:33;;;;;;;;;;;;;;;;;;4897755;29;20584;-77
2022/02/23 05:17:59;;;;;;;;;;;;;;;;;;4882623;29;19953;-78
2022/02/23 05:20:27;;;;;;;;;;;;;;;;;;4882536;29;20044;-78
2022/02/23 05:22:53;;;;;;;;;;;;;;;;;;4897912;29;19950;-76
2022/02/23 05:25:19;;;;;;;;;;;;;;;;;;4898399;29;19953;-82
2022/02/23 05:27:45;;;;;;;;;;;;;;;;;;4882820;29;19946;-81
2022/02/23 05:30:11;;;;;;;;;;;;;;;;;;4883543;29;19955;-83
2022/02/23 05:32:37;;;;;;;;;;;;;;;;;;4898830;29;19952;-83
2022/02/23 05:35:03;;;;;;;;;;;;;;;;;;4898100;29;19966;-80
2022/02/23 05:37:29;;;;;;;;;;;;;;;;;;4897097;29;20420;-79
2022/02/23 05:39:55;;;;;;;;;;;;;;;;;;4881824;29;20401;-78
2022/02/23 05:42:21;;;;;;;;;;;;;;;;;;4897196;29;19953;-77
2022/02/23 05:44:47;;;;;;;;;;;;;;;;;;4896086;29;19958;-74
2022/02/23 05:47:13;;;;;;;;;;;;;;;;;;4899299;29;19971;-78
2022/02/23 05:49:39;;;;;;;;;;;;;;;;;;4884340;29;20001;-79
2022/02/23 05:52:05;;;;;;;;;;;;;;;;;;4900521;29;19955;-82
2022/02/23 05:54:31;;;;;;;;;;;;;;;;;;4900419;29;19964;-82
2022/02/23 05:56:57;;;;;;;;;;;;;;;;;;4901033;29;20392;-80
2022/02/23 05:59:23;;;;;;;;;;;;;;;;;;4885440;29;20000;-79
2022/02/23 06:01:49;;;;;;;;;;;;;;;;;;4900441;29;20353;-79
2022/02/23 06:04:15;;;;;;;;;;;;;;;;;;4901165;29;20040;-83
2022/02/23 06:06:41;;;;;;;;;;;;;;;;;;4901570;29;19956;-85
2022/02/23 06:09:07;;;;;;;;;;;;;;;;;;4886627;29;19951;-79
2022/02/23 06:11:33;;;;;;;;;;;;;;;;;;4886914;29;19952;-79
2022/02/23 06:13:59;;;;;;;;;;;;;;;;;;4902591;29;19956;-78
2022/02/23 06:16:27;;;;;;;;;;;;;;;;;;4902331;29;19946;-78
2022/02/23 06:18:54;;;;;;;;;;;;;;;;;;4901691;29;20304;-77
2022/02/23 06:21:20;;;;;;;;;;;;;;;;;;4886511;29;19953;-77
2022/02/23 06:23:46;;;;;;;;;;;;;;;;;;4886104;29;19949;-78
2022/02/23 06:26:12;;;;;;;;;;;;;;;;;;4886456;29;19991;-78
2022/02/23 06:28:38;;;;;;;;;;;;;;;;;;4901335;29;19992;-79
2022/02/23 06:31:04;;;;;;;;;;;;;;;;;;4902018;29;19952;-79
2022/02/23 06:33:30;;;;;;;;;;;;;;;;;;4886002;29;20327;-79
2022/02/23 06:35:56;;;;;;;;;;;;;;;;;;4901962;29;19974;-77
2022/02/23 06:38:22;;;;;;;;;;;;;;;;;;4886473;29;19954;-77
2022/02/23 06:40:48;;;;;;;;;;;;;;;;;;4886214;29;19947;-78
2022/02/23 06:43:15;;;;;;;;;;;;;;;;;;4902066;29;19953;-77
2022/02/23 06:45:41;;;;;;;;;;;;;;;;;;4901405;29;19947;-79
2022/02/23 06:48:07;;;;;;;;;;;;;;;;;;4901096;29;20084;-78
2022/02/23 06:50:33;;;;;;;;;;;;;;;;;;4885998;29;19976;-78
2022/02/23 06:52:59;;;;;;;;;;;;;;;;;;4901719;29;20034;-77
2022/02/23 06:55:25;;;;;;;;;;;;;;;;;;4885898;29;20465;-77
2022/02/23 06:57:50;;;;;;;;;;;;;;;;;;4901230;29;20387;-78
2022/02/23 07:00:16;;;;;;;;;;;;;;;;;;4901612;29;19957;-78
2022/02/23 07:02:42;;;;;;;;;;;;;;;;;;4900934;29;19952;-78
2022/02/23 07:05:08;;;;;;;;;;;;;;;;;;4901298;29;20019;-79
2022/02/23 07:07:34;;;;;;;;;;;;;;;;;;4886048;29;19950;-78
2022/02/23 07:10:00;;;;;;;;;;;;;;;;;;4901147;29;19948;-77
2022/02/23 07:12:26;;;;;;;;;;;;;;;;;;4901411;29;20061;-77
2022/02/23 07:14:52;;;;;;;;;;;;;;;;;;4900819;29;20048;-77
2022/02/23 07:17:18;;;;;;;;;;;;;;;;;;4885517;29;19957;-78
2022/02/23 07:19:44;;;;;;;;;;;;;;;;;;4901000;29;19950;-78
2022/02/23 07:22:10;;;;;;;;;;;;;;;;;;4885415;29;20002;-77
2022/02/23 07:24:37;;;;;;;;;;;;;;;;;;4900849;29;19951;-78
2022/02/23 07:27:02;;;;;;;;;;;;;;;;;;4900937;29;19951;-78
2022/02/23 07:29:28;;;;;;;;;;;;;;;;;;4901249;29;19961;-77
2022/02/23 07:31:54;;;;;;;;;;;;;;;;;;4900420;29;19955;-78
2022/02/23 07:34:20;;;;;;;;;;;;;;;;;;4900849;29;20004;-78
2022/02/23 07:36:46;;;;;;;;;;;;;;;;;;4885105;29;19975;-78
2022/02/23 07:39:12;;;;;;;;;;;;;;;;;;4885024;29;20396;-78
2022/02/23 07:41:38;;;;;;;;;;;;;;;;;;4884469;29;19951;-78
2022/02/23 07:44:04;;;;;;;;;;;;;;;;;;4900752;29;19955;-78
2022/02/23 07:46:30;;;;;;;;;;;;;;;;;;4900427;29;19950;-78
2022/02/23 07:49:00;;;;;;;;;;;;;;;;;;4884418;29;20063;-79
2022/02/23 07:51:26;;;;;;;;;;;;;;;;;;4900662;29;20436;-78
2022/02/23 07:53:54;;;;;;;;;;;;;;;;;;4899251;29;19953;-78
2022/02/23 07:56:21;;;;;;;;;;;;;;;;;;4899761;29;19968;-79
2022/02/23 07:58:47;;;;;;;;;;;;;;;;;;4899818;29;20455;-79
2022/02/23 08:01:13;;;;;;;;;;;;;;;;;;4884369;29;20039;-79
2022/02/23 08:03:41;;;;;;;;;;;;;;;;;;4883636;29;19948;-79
2022/02/23 08:06:07;;;;;;;;;;;;;;;;;;4882896;29;19955;-79
2022/02/23 08:08:33;;;;;;;;;;;;;;;;;;4882910;29;19953;-79
2022/02/23 08:10:59;;;;;;;;;;;;;;;;;;4882903;29;20426;-79
2022/02/23 08:13:25;;;;;;;;;;;;;;;;;;4898741;29;19980;-79
2022/02/23 08:21:22;;;;;;;;;;;;;;;;;;4898513;29;19954;-80
2022/02/23 08:23:48;;;;;;;;;;;;;;;;;;4882775;29;20002;-79
2022/02/23 08:26:14;;;;;;;;;;;;;;;;;;4882837;29;19977;-79
2022/02/23 08:28:40;;;;;;;;;;;;;;;;;;4898688;29;19955;-79
2022/02/23 08:31:06;;;;;;;;;;;;;;;;;;4898508;29;19947;-79
2022/02/23 08:33:32;;;;;;;;;;;;;;;;;;4882527;29;20085;-79
2022/02/23 08:35:58;;;;;;;;;;;;;;;;;;4897344;29;20008;-79
2022/02/23 08:38:24;;;;;;;;;;;;;;;;;;4898165;29;19954;-79
2022/02/23 08:40:50;;;;;;;;;;;;;;;;;;4898437;29;20019;-79
2022/02/23 08:43:16;;;;;;;;;;;;;;;;;;4882771;29;19984;-79
2022/02/23 08:45:42;;;;;;;;;;;;;;;;;;4898512;29;20048;-79
2022/02/23 08:48:08;;;;;;;;;;;;;;;;;;4897719;29;19968;-78
2022/02/23 08:50:34;;;;;;;;;;;;;;;;;;4898323;29;19987;-79
2022/02/23 08:53:00;;;;;;;;;;;;;;;;;;4896864;29;20041;-80
2022/02/23 08:55:26;;;;;;;;;;;;;;;;;;4882126;29;20061;-79
2022/02/23 08:57:52;;;;;;;;;;;;;;;;;;4897613;29;19951;-79
2022/02/23 09:00:18;;;;;;;;;;;;;;;;;;4882381;29;19997;-79
2022/02/23 09:02:44;;;;;;;;;;;;;;;;;;4882115;29;19944;-79
2022/02/23 09:05:10;;;;;;;;;;;;;;;;;;4898872;29;20300;-78
2022/02/23 09:07:36;;;;;;;;;;;;;;;;;;4899462;29;19945;-79
2022/02/23 09:10:02;;;;;;;;;;;;;;;;;;4883174;29;19998;-81
2022/02/23 09:12:28;;;;;;;;;;;;;;;;;;4882286;29;19949;-81
2022/02/23 09:14:54;;;;;;;;;;;;;;;;;;4897327;29;19957;-81
2022/02/23 09:17:20;;;;;;;;;;;;;;;;;;4882715;29;20289;-81
2022/02/23 09:19:46;;;;;;;;;;;;;;;;;;4898212;29;19948;-80
2022/02/23 09:22:12;;;;;;;;;;;;;;;;;;4901239;29;20026;-80
2022/02/23 09:24:38;;;;;;;;;;;;;;;;;;4902711;29;20050;-80
2022/02/23 09:27:04;;;;;;;;;;;;;;;;;;4886784;29;20055;-79
2022/02/23 09:29:34;;;;;;;;;;;;;;;;;;4903279;29;20047;-81
2022/02/23 09:32:00;;;;;;;;;;;;;;;;;;4902472;29;20342;-80
2022/02/23 09:34:26;;;;;;;;;;;;;;;;;;4886780;29;19998;-79
2022/02/23 09:36:51;;;;;;;;;;;;;;;;;;4902490;29;20413;-81
2022/02/23 09:39:18;;;;;;;;;;;;;;;;;;4902537;29;20379;-77
2022/02/23 09:41:45;;;;;;;;;;;;;;;;;;4886974;29;19950;-79
2022/02/23 09:44:11;;;;;;;;;;;;;;;;;;4887356;29;19990;-79
2022/02/23 09:46:40;;;;;;;;;;;;;;;;;;4886874;29;20064;-78
2022/02/23 09:49:06;;;;;;;;;;;;;;;;;;4901265;29;20022;-76
2022/02/23 09:51:32;;;;;;;;;;;;;;;;;;4886365;29;19942;-77
2022/02/23 09:53:58;;;;;;;;;;;;;;;;;;4900919;29;19951;-80
2022/02/23 09:56:23;;;;;;;;;;;;;;;;;;4901041;29;19983;-79
2022/02/23 09:58:50;;;;;;;;;;;;;;;;;;4901888;29;19949;-78
2022/02/23 10:01:16;;;;;;;;;;;;;;;;;;4886806;29;20001;-78
2022/02/23 10:03:44;;;;;;;;;;;;;;;;;;4902510;29;19984;-78
2022/02/23 10:06:10;;;;;;;;;;;;;;;;;;4886416;29;19949;-79
2022/02/23 10:08:37;;;;;;;;;;;;;;;;;;4902193;29;20258;-78
2022/02/23 10:11:03;;;;;;;;;;;;;;;;;;4886069;29;19949;-78
2022/02/23 10:13:29;;;;;;;;;;;;;;;;;;4902111;29;19947;-78
2022/02/23 10:15:58;;;;;;;;;;;;;;;;;;4885519;29;20053;-79
2022/02/23 10:18:26;;;;;;;;;;;;;;;;;;4902328;29;20354;-80
2022/02/23 10:20:52;;;;;;;;;;;;;;;;;;4885983;29;19992;-79
2022/02/23 10:23:23;;;;;;;;;;;;;;;;;;4885619;29;19943;-80
2022/02/23 10:25:49;;;;;;;;;;;;;;;;;;4900434;29;20360;-81
2022/02/23 10:28:17;;;;;;;;;;;;;;;;;;4884917;29;19991;-80
2022/02/23 10:30:43;;;;;;;;;;;;;;;;;;4900514;29;20386;-81
2022/02/23 10:33:09;;;;;;;;;;;;;;;;;;4883530;29;20031;-81
2022/02/23 10:35:34;;;;;;;;;;;;;;;;;;4884976;29;19959;-81
2022/02/23 10:38:00;;;;;;;;;;;;;;;;;;4884590;29;20499;-81
2022/02/23 10:40:26;;;;;;;;;;;;;;;;;;4885729;29;20515;-81
2022/02/23 10:42:52;;;;;;;;;;;;;;;;;;4900779;29;20373;-80
2022/02/23 10:45:18;;;;;;;;;;;;;;;;;;4901319;29;19948;-81
2022/02/23 10:47:45;;;;;;;;;;;;;;;;;;4900816;29;19984;-80
2022/02/23 10:50:11;;;;;;;;;;;;;;;;;;4885264;29;20296;-80
2022/02/23 10:52:37;;;;;;;;;;;;;;;;;;4901272;29;20036;-80
2022/02/23 10:55:03;;;;;;;;;;;;;;;;;;4885254;29;20266;-81
2022/02/23 10:57:33;;;;;;;;;;;;;;;;;;4901148;29;20360;-80
2022/02/23 10:59:59;;;;;;;;;;;;;;;;;;4900285;29;20285;-79
2022/02/23 11:02:24;;;;;;;;;;;;;;;;;;4885490;29;20012;-81
2022/02/23 11:04:50;;;;;;;;;;;;;;;;;;4901270;29;19943;-81
2022/02/23 11:07:16;;;;;;;;;;;;;;;;;;4885373;29;19944;-81
2022/02/23 11:09:42;;;;;;;;;;;;;;;;;;4900642;29;19942;-80
2022/02/23 11:12:08;;;;;;;;;;;;;;;;;;4885119;29;19946;-81
2022/02/23 11:14:35;;;;;;;;;;;;;;;;;;4901069;29;19987;-81
2022/02/23 11:17:00;;;;;;;;;;;;;;;;;;4900253;29;19946;-79
2022/02/23 11:19:26;;;;;;;;;;;;;;;;;;4901028;29;20001;-80
2022/02/23 11:21:52;;;;;;;;;;;;;;;;;;4885128;29;19987;-80
2022/02/23 11:24:20;;;;;;;;;;;;;;;;;;4884628;29;19950;-80
2022/02/23 11:26:46;;;;;;;;;;;;;;;;;;4900887;29;20002;-81
2022/02/23 11:29:14;;;;;;;;;;;;;;;;;;4900018;29;19953;-81
2022/02/23 11:31:40;;;;;;;;;;;;;;;;;;4885157;29;19970;-81
2022/02/23 11:34:06;;;;;;;;;;;;;;;;;;4899924;29;19974;-80
2022/02/23 11:36:34;;;;;;;;;;;;;;;;;;4900269;29;19968;-80
2022/02/23 11:39:00;;;;;;;;;;;;;;;;;;4899950;29;20230;-81
2022/02/23 11:41:26;;;;;;;;;;;;;;;;;;4900631;29;19954;-81
2022/02/23 11:43:52;;;;;;;;;;;;;;;;;;4899100;29;20314;-79
2022/02/23 11:46:18;;;;;;;;;;;;;;;;;;4884421;29;19955;-81
2022/02/23 11:48:44;;;;;;;;;;;;;;;;;;4884103;29;19970;-80
2022/02/23 11:51:10;;;;;;;;;;;;;;;;;;4900456;29;20488;-77
2022/02/23 11:53:36;;;;;;;;;;;;;;;;;;4900331;29;19954;-77
2022/02/23 11:56:17;;;;;;;;;;;;;;;;;;4898796;29;20058;-86
2022/02/23 12:02:06;;;;;;;;;;;;;;;;;;4822852;29;19986;-89
2022/02/23 12:10:57;;;;;;;;;;;;;;;;;;4789368;29;19956;-88
2022/02/23 12:13:23;;;;;;;;;;;;;;;;;;4800688;29;19957;-84
2022/02/23 12:15:51;;;;;;;;;;;;;;;;;;4813593;29;20051;-85
2022/02/23 12:18:17;;;;;;;;;;;;;;;;;;4859854;29;20629;-84
2022/02/23 12:20:43;;;;;;;;;;;;;;;;;;4861719;29;19957;-85
2022/02/23 12:23:09;;;;;;;;;;;;;;;;;;4860854;29;19944;-86
2022/02/23 12:25:35;;;;;;;;;;;;;;;;;;4860741;29;20103;-83
2022/02/23 12:28:01;;;;;;;;;;;;;;;;;;4861286;29;20394;-85
2022/02/23 12:30:26;;;;;;;;;;;;;;;;;;4891080;29;20367;-83
2022/02/23 12:32:52;;;;;;;;;;;;;;;;;;4883914;29;19954;-86
2022/02/23 12:35:18;;;;;;;;;;;;;;;;;;4884037;29;20113;-82
2022/02/23 12:38:02;;;;;;;;;;;;;;;;;;4884941;29;20324;-89
2022/02/23 12:40:28;;;;;;;;;;;;;;;;;;4884317;29;20414;-84
2022/02/23 12:42:54;;;;;;;;;;;;;;;;;;4884726;29;19948;-85
2022/02/23 12:45:20;;;;;;;;;;;;;;;;;;4884782;29;20385;-81
2022/02/23 12:47:47;;;;;;;;;;;;;;;;;;4884838;29;19978;-84
2022/02/23 12:50:13;;;;;;;;;;;;;;;;;;4899072;29;19949;-86
2022/02/23 12:52:39;;;;;;;;;;;;;;;;;;4884277;29;19973;-86
2022/02/23 12:55:05;;;;;;;;;;;;;;;;;;4882441;29;20006;-84
2022/02/23 12:57:31;;;;;;;;;;;;;;;;;;4880864;29;19946;-84
2022/02/23 12:59:58;;;;;;;;;;;;;;;;;;4882039;29;20377;-85
2022/02/23 13:02:24;;;;;;;;;;;;;;;;;;4898823;29;19991;-87
2022/02/23 13:04:51;;;;;;;;;;;;;;;;;;4883989;29;20272;-85
2022/02/23 13:07:17;;;;;;;;;;;;;;;;;;4899033;29;19948;-84
2022/02/23 13:09:43;;;;;;;;;;;;;;;;;;4899172;29;19950;-84
2022/02/23 13:12:09;;;;;;;;;;;;;;;;;;4899206;29;19947;-87
2022/02/23 13:14:35;;;;;;;;;;;;;;;;;;4899646;29;20359;-85
2022/02/23 13:17:01;;;;;;;;;;;;;;;;;;4883656;29;20011;-84
2022/02/23 13:19:28;;;;;;;;;;;;;;;;;;4899327;29;20361;-86
2022/02/23 13:21:55;;;;;;;;;;;;;;;;;;4884496;29;19940;-88
2022/02/23 13:24:21;;;;;;;;;;;;;;;;;;4884359;29;19939;-88
2022/02/23 13:26:47;;;;;;;;;;;;;;;;;;4900165;29;19946;-87
2022/02/23 13:29:14;;;;;;;;;;;;;;;;;;4900098;29;19939;-88
2022/02/23 13:31:40;;;;;;;;;;;;;;;;;;4900157;29;19940;-88
2022/02/23 13:34:06;;;;;;;;;;;;;;;;;;4900616;29;20194;-89
2022/02/23 13:36:32;;;;;;;;;;;;;;;;;;4900269;29;20005;-86
2022/02/23 13:38:58;;;;;;;;;;;;;;;;;;4900804;29;20393;-88
2022/02/23 13:41:24;;;;;;;;;;;;;;;;;;4885159;29;19942;-89
2022/02/23 13:43:50;;;;;;;;;;;;;;;;;;4885527;29;19950;-88
2022/02/23 13:46:16;;;;;;;;;;;;;;;;;;4899758;29;20374;-89
2022/02/23 13:48:42;;;;;;;;;;;;;;;;;;4897734;29;19992;-85
2022/02/23 13:51:08;;;;;;;;;;;;;;;;;;4898715;29;20221;-88
2022/02/23 13:53:37;;;;;;;;;;;;;;;;;;4884174;29;19946;-87
2022/02/23 13:56:03;;;;;;;;;;;;;;;;;;4898575;29;20032;-86
2022/02/23 13:58:29;;;;;;;;;;;;;;;;;;4883164;29;20389;-86
2022/02/23 14:00:55;;;;;;;;;;;;;;;;;;4883427;29;19951;-86
2022/02/23 14:03:20;;;;;;;;;;;;;;;;;;4898543;29;19955;-83
2022/02/23 14:05:46;;;;;;;;;;;;;;;;;;4898822;29;20015;-88
2022/02/23 14:08:12;;;;;;;;;;;;;;;;;;4886470;29;19950;-88
2022/02/23 14:10:38;;;;;;;;;;;;;;;;;;4887375;29;19947;-86
2022/02/23 14:13:05;;;;;;;;;;;;;;;;;;4886264;29;19951;-85
2022/02/23 14:15:31;;;;;;;;;;;;;;;;;;4886316;29;20010;-86
2022/02/23 14:17:57;;;;;;;;;;;;;;;;;;4886754;29;19956;-86
2022/02/23 14:20:23;;;;;;;;;;;;;;;;;;4886285;29;19945;-86
2022/02/23 14:22:49;;;;;;;;;;;;;;;;;;4901441;29;19946;-87
2022/02/23 14:25:15;;;;;;;;;;;;;;;;;;4886684;29;20002;-87
2022/02/23 14:27:41;;;;;;;;;;;;;;;;;;4885850;29;19943;-83
2022/02/23 14:30:07;;;;;;;;;;;;;;;;;;4901024;29;19945;-82
2022/02/23 14:32:34;;;;;;;;;;;;;;;;;;4885949;29;20335;-82
2022/02/23 14:35:02;;;;;;;;;;;;;;;;;;4885822;29;19959;-82
2022/02/23 14:37:28;;;;;;;;;;;;;;;;;;4901638;29;19989;-82
2022/02/23 14:39:54;;;;;;;;;;;;;;;;;;4901558;29;19951;-81
2022/02/23 14:42:20;;;;;;;;;;;;;;;;;;4901393;29;19944;-82
2022/02/23 14:44:46;;;;;;;;;;;;;;;;;;4901552;29;20031;-82
2022/02/23 14:47:12;;;;;;;;;;;;;;;;;;4901190;29;19941;-81
2022/02/23 14:49:38;;;;;;;;;;;;;;;;;;4900577;29;19974;-82
2022/02/23 14:52:04;;;;;;;;;;;;;;;;;;4901518;29;19951;-82
2022/02/23 14:54:30;;;;;;;;;;;;;;;;;;4885171;29;20021;-85
2022/02/23 14:56:56;;;;;;;;;;;;;;;;;;4887920;29;20036;-81
2022/02/23 14:59:22;;;;;;;;;;;;;;;;;;4899943;29;20277;-82
2022/02/23 15:01:48;;;;;;;;;;;;;;;;;;4884398;29;20383;-83
2022/02/23 15:04:14;;;;;;;;;;;;;;;;;;4900577;29;20038;-82
2022/02/23 15:06:40;;;;;;;;;;;;;;;;;;4901625;29;19955;-83
2022/02/23 15:09:06;;;;;;;;;;;;;;;;;;4884864;29;19947;-82
2022/02/23 15:11:32;;;;;;;;;;;;;;;;;;4900691;29;20607;-81
2022/02/23 15:13:58;;;;;;;;;;;;;;;;;;4885118;29;19989;-82
2022/02/23 15:16:24;;;;;;;;;;;;;;;;;;4908480;29;19961;-83
2022/02/23 15:18:50;;;;;;;;;;;;;;;;;;4902009;29;19946;-84
2022/02/23 15:21:16;;;;;;;;;;;;;;;;;;4895988;29;19955;-90
2022/02/23 15:23:42;;;;;;;;;;;;;;;;;;4905169;29;19953;-90
2022/02/23 15:26:08;;;;;;;;;;;;;;;;;;4887348;29;20050;-81
2022/02/23 15:28:34;;;;;;;;;;;;;;;;;;4900827;29;19943;-85
2022/02/23 15:31:00;;;;;;;;;;;;;;;;;;4885315;29;19965;-83
2022/02/23 15:33:26;;;;;;;;;;;;;;;;;;4900412;29;20000;-83
2022/02/23 15:35:52;;;;;;;;;;;;;;;;;;4883726;29;19971;-80
2022/02/23 15:38:18;;;;;;;;;;;;;;;;;;4883672;29;19945;-80
2022/02/23 15:40:44;;;;;;;;;;;;;;;;;;4898631;29;19947;-80
2022/02/23 15:43:10;;;;;;;;;;;;;;;;;;4883057;29;19986;-86
2022/02/23 15:45:37;;;;;;;;;;;;;;;;;;4885383;29;19944;-88
2022/02/23 15:48:03;;;;;;;;;;;;;;;;;;4885190;29;19947;-85
2022/02/23 15:50:33;;;;;;;;;;;;;;;;;;4885189;29;19946;-87
2022/02/23 15:52:59;;;;;;;;;;;;;;;;;;4885837;29;19990;-85
2022/02/23 15:55:25;;;;;;;;;;;;;;;;;;4884908;29;20074;-87
2022/02/23 15:57:50;;;;;;;;;;;;;;;;;;4885288;29;19975;-88
2022/02/23 16:00:16;;;;;;;;;;;;;;;;;;4884807;29;19945;-89
2022/02/23 16:02:42;;;;;;;;;;;;;;;;;;4886078;29;19996;-89
2022/02/23 16:05:09;;;;;;;;;;;;;;;;;;4885392;29;19949;-90
2022/02/23 16:07:35;;;;;;;;;;;;;;;;;;4885346;29;20004;-93
2022/02/23 16:10:01;;;;;;;;;;;;;;;;;;4885273;29;20351;-86
2022/02/23 16:12:27;;;;;;;;;;;;;;;;;;4885296;29;19969;-87
2022/02/23 16:14:53;;;;;;;;;;;;;;;;;;4884590;29;20036;-88
2022/02/23 16:17:18;;;;;;;;;;;;;;;;;;4885434;29;20038;-89
2022/02/23 16:19:44;;;;;;;;;;;;;;;;;;4885342;29;20077;-90
2022/02/23 16:22:10;;;;;;;;;;;;;;;;;;4884874;29;20007;-88
2022/02/23 16:24:37;;;;;;;;;;;;;;;;;;4885313;29;20093;-89
2022/02/23 16:27:05;;;;;;;;;;;;;;;;;;4886083;29;20028;-91
2022/02/23 16:29:31;;;;;;;;;;;;;;;;;;4900894;29;19973;-90
2022/02/23 16:31:57;;;;;;;;;;;;;;;;;;4900949;29;19949;-91
2022/02/23 16:34:23;;;;;;;;;;;;;;;;;;4884566;29;20332;-83
2022/02/23 16:36:49;;;;;;;;;;;;;;;;;;4883316;29;19968;-87
2022/02/23 16:39:15;;;;;;;;;;;;;;;;;;4884122;29;20017;-86
2022/02/23 16:41:41;;;;;;;;;;;;;;;;;;4884060;29;19984;-88
2022/02/23 16:44:07;;;;;;;;;;;;;;;;;;4884367;29;19970;-87
2022/02/23 16:46:35;;;;;;;;;;;;;;;;;;4884510;29;19955;-87
2022/02/23 16:49:03;;;;;;;;;;;;;;;;;;4883592;29;19969;-85
2022/02/23 16:51:29;;;;;;;;;;;;;;;;;;4898508;29;20028;-86
2022/02/23 16:53:55;;;;;;;;;;;;;;;;;;4883800;29;19995;-81